THY7VK LTFE-LTFM
Flight info
| Callsign | THY7VK |
|---|---|
| Flight time | 1h 0m |
| Altitude | 36000 |
| Route | AKBUK1D/10L AKBUK UN618 DUGLA UZ713 INBET INBE1B |
| Aircraft | B738/M-VGDW/C |
Departure
| Time | 2026-05-04 16:07 |
|---|---|
| Airport | Milas Bodrum International Airport (LTFE) |
Arrival
| Time | 2026-05-04 17:08 |
|---|---|
| Airport | İstanbul Airport (LTFM) |
| Time | Latitude | Longitude | Altitude | Speed | Heading |
|---|---|---|---|---|---|
| 2026-05-04 15:32 | 37.24512 | 27.67321 | 29 ft | 0 kts | 197° |
| 2026-05-04 15:50 | 37.24513 | 27.67321 | 30 ft | 0 kts | 197° |
| 2026-05-04 15:50 | 37.24514 | 27.67322 | 30 ft | 0 kts | 197° |
| 2026-05-04 15:51 | 37.24517 | 27.67323 | 29 ft | 0 kts | 197° |
| 2026-05-04 15:52 | 37.24531 | 27.67328 | 28 ft | 2 kts | 197° |
| 2026-05-04 15:52 | 37.24546 | 27.67334 | 29 ft | 2 kts | 197° |
| 2026-05-04 15:52 | 37.24562 | 27.67340 | 30 ft | 2 kts | 197° |
| 2026-05-04 15:53 | 37.24577 | 27.67347 | 30 ft | 2 kts | 256° |
| 2026-05-04 15:53 | 37.24576 | 27.67366 | 30 ft | 0 kts | 289° |
| 2026-05-04 16:00 | 37.24577 | 27.67363 | 30 ft | 2 kts | 289° |
| 2026-05-04 16:00 | 37.24589 | 27.67319 | 41 ft | 9 kts | 288° |
| 2026-05-04 16:00 | 37.24613 | 27.67218 | 29 ft | 14 kts | 287° |
| 2026-05-04 16:01 | 37.24642 | 27.67098 | 29 ft | 14 kts | 286° |
| 2026-05-04 16:01 | 37.24668 | 27.67000 | 29 ft | 8 kts | 308° |
| 2026-05-04 16:01 | 37.24718 | 27.66991 | 29 ft | 7 kts | 12° |
| 2026-05-04 16:01 | 37.24765 | 27.66975 | 29 ft | 7 kts | 320° |
| 2026-05-04 16:02 | 37.24809 | 27.66926 | 28 ft | 11 kts | 318° |
| 2026-05-04 16:02 | 37.24868 | 27.66821 | 27 ft | 18 kts | 286° |
| 2026-05-04 16:02 | 37.24960 | 27.66439 | 27 ft | 27 kts | 287° |
| 2026-05-04 16:03 | 37.25015 | 27.66206 | 30 ft | 28 kts | 287° |
| 2026-05-04 16:03 | 37.25070 | 27.65977 | 30 ft | 29 kts | 287° |
| 2026-05-04 16:03 | 37.25127 | 27.65738 | 29 ft | 28 kts | 286° |
| 2026-05-04 16:03 | 37.25180 | 27.65515 | 30 ft | 26 kts | 287° |
| 2026-05-04 16:04 | 37.25231 | 27.65305 | 29 ft | 24 kts | 287° |
| 2026-05-04 16:04 | 37.25316 | 27.64947 | 30 ft | 12 kts | 287° |
| 2026-05-04 16:04 | 37.25347 | 27.64890 | 31 ft | 7 kts | 329° |
| 2026-05-04 16:05 | 37.25394 | 27.64888 | 31 ft | 7 kts | 19° |
| 2026-05-04 16:05 | 37.25419 | 27.64898 | 31 ft | 0 kts | 18° |
| 2026-05-04 16:05 | 37.25420 | 27.64899 | 31 ft | 1 kts | 18° |
| 2026-05-04 16:06 | 37.25460 | 27.64915 | 31 ft | 8 kts | 18° |
| 2026-05-04 16:06 | 37.25304 | 27.65729 | 28 ft | 119 kts | 106° |
| 2026-05-04 16:07 | 37.24852 | 27.67522 | 146 ft | 194 kts | 105° |
| 2026-05-04 16:07 | 37.23682 | 27.72557 | 2541 ft | 223 kts | 101° |
| 2026-05-04 16:08 | 37.23224 | 27.74544 | 2799 ft | 246 kts | 102° |
| 2026-05-04 16:08 | 37.23290 | 27.81016 | 4730 ft | 249 kts | 45° |
| 2026-05-04 16:09 | 37.26257 | 27.83124 | 6271 ft | 249 kts | 14° |
| 2026-05-04 16:09 | 37.29635 | 27.84218 | 7838 ft | 252 kts | 1° |
| 2026-05-04 16:10 | 37.32858 | 27.82644 | 9325 ft | 261 kts | 318° |
| 2026-05-04 16:11 | 37.35087 | 27.75989 | 10631 ft | 309 kts | 290° |
| 2026-05-04 16:11 | 37.35704 | 27.73330 | 10980 ft | 323 kts | 290° |
| 2026-05-04 16:12 | 37.37657 | 27.65063 | 13177 ft | 331 kts | 290° |
| 2026-05-04 16:12 | 37.39669 | 27.56593 | 15296 ft | 343 kts | 290° |
| 2026-05-04 16:13 | 37.41838 | 27.51354 | 16700 ft | 339 kts | 317° |
| 2026-05-04 16:13 | 37.45842 | 27.48324 | 18176 ft | 339 kts | 337° |
| 2026-05-04 16:14 | 37.50193 | 27.45925 | 19319 ft | 347 kts | 337° |
| 2026-05-04 16:14 | 37.54661 | 27.43390 | 20391 ft | 356 kts | 336° |
| 2026-05-04 16:15 | 37.61545 | 27.39431 | 21967 ft | 369 kts | 336° |
| 2026-05-04 16:16 | 37.66291 | 27.36764 | 22962 ft | 377 kts | 337° |
| 2026-05-04 16:16 | 37.73647 | 27.32770 | 24305 ft | 388 kts | 338° |
| 2026-05-04 16:17 | 37.78614 | 27.30062 | 25121 ft | 395 kts | 338° |
| 2026-05-04 16:18 | 37.86270 | 27.25867 | 26287 ft | 404 kts | 338° |
| 2026-05-04 16:18 | 37.88857 | 27.24446 | 26674 ft | 407 kts | 338° |
| 2026-05-04 16:19 | 37.96732 | 27.20113 | 27744 ft | 416 kts | 338° |
| 2026-05-04 16:19 | 38.02093 | 27.17157 | 28429 ft | 422 kts | 338° |
| 2026-05-04 16:20 | 38.10233 | 27.12661 | 29440 ft | 429 kts | 339° |
| 2026-05-04 16:20 | 38.15755 | 27.09604 | 30094 ft | 435 kts | 339° |
| 2026-05-04 16:21 | 38.24039 | 27.05007 | 31222 ft | 433 kts | 338° |
| 2026-05-04 16:22 | 38.29634 | 27.02174 | 31857 ft | 432 kts | 347° |
| 2026-05-04 16:22 | 38.38518 | 27.01799 | 32862 ft | 429 kts | 8° |
| 2026-05-04 16:23 | 38.47386 | 27.03528 | 33802 ft | 429 kts | 8° |
| 2026-05-04 16:24 | 38.59199 | 27.05751 | 34816 ft | 430 kts | 7° |
| 2026-05-04 16:25 | 38.65074 | 27.06831 | 35278 ft | 430 kts | 7° |
| 2026-05-04 16:26 | 38.76942 | 27.09020 | 36055 ft | 431 kts | 7° |
| 2026-05-04 16:26 | 38.85875 | 27.10674 | 36058 ft | 432 kts | 8° |
| 2026-05-04 16:28 | 39.00734 | 27.13433 | 36050 ft | 430 kts | 8° |
| 2026-05-04 16:29 | 39.20399 | 27.17020 | 36048 ft | 428 kts | 8° |
| 2026-05-04 16:31 | 39.35131 | 27.19724 | 36046 ft | 427 kts | 8° |
| 2026-05-04 16:32 | 39.52817 | 27.22381 | 36055 ft | 431 kts | 358° |
| 2026-05-04 16:33 | 39.58808 | 27.21939 | 35762 ft | 440 kts | 357° |
| 2026-05-04 16:33 | 39.64951 | 27.21462 | 34620 ft | 441 kts | 358° |
| 2026-05-04 16:34 | 39.71068 | 27.21033 | 33363 ft | 438 kts | 359° |
| 2026-05-04 16:34 | 39.74119 | 27.20829 | 32710 ft | 437 kts | 359° |
| 2026-05-04 16:35 | 39.83153 | 27.20229 | 30891 ft | 433 kts | 360° |
| 2026-05-04 16:35 | 39.92143 | 27.19629 | 28986 ft | 430 kts | 360° |
| 2026-05-04 16:36 | 39.95129 | 27.19428 | 28345 ft | 428 kts | 360° |
| 2026-05-04 16:36 | 40.00967 | 27.20136 | 27104 ft | 417 kts | 18° |
| 2026-05-04 16:37 | 40.06438 | 27.22421 | 25931 ft | 407 kts | 20° |
| 2026-05-04 16:37 | 40.09071 | 27.23545 | 25381 ft | 397 kts | 20° |
| 2026-05-04 16:37 | 40.14178 | 27.25666 | 24862 ft | 380 kts | 20° |
| 2026-05-04 16:38 | 40.19281 | 27.27622 | 24319 ft | 382 kts | 10° |
| 2026-05-04 16:39 | 40.26952 | 27.28126 | 23085 ft | 360 kts | 5° |
| 2026-05-04 16:39 | 40.31922 | 27.28416 | 22228 ft | 355 kts | 5° |
| 2026-05-04 16:40 | 40.36853 | 27.28743 | 21389 ft | 354 kts | 5° |
| 2026-05-04 16:40 | 40.41758 | 27.29079 | 20543 ft | 353 kts | 5° |
| 2026-05-04 16:41 | 40.46644 | 27.29415 | 19696 ft | 349 kts | 5° |
| 2026-05-04 16:41 | 40.53841 | 27.29908 | 18471 ft | 341 kts | 5° |
| 2026-05-04 16:42 | 40.60763 | 27.30382 | 17212 ft | 320 kts | 5° |
| 2026-05-04 16:43 | 40.65099 | 27.30681 | 16478 ft | 303 kts | 5° |
| 2026-05-04 16:43 | 40.69177 | 27.30962 | 16257 ft | 294 kts | 5° |
| 2026-05-04 16:43 | 40.71210 | 27.31104 | 16135 ft | 292 kts | 5° |
| 2026-05-04 16:44 | 40.78753 | 27.34181 | 15114 ft | 285 kts | 47° |
| 2026-05-04 16:45 | 40.80279 | 27.38939 | 14653 ft | 289 kts | 78° |
| 2026-05-04 16:46 | 40.80900 | 27.46905 | 13938 ft | 292 kts | 81° |
| 2026-05-04 16:46 | 40.81287 | 27.52256 | 13416 ft | 293 kts | 81° |
| 2026-05-04 16:47 | 40.81683 | 27.57565 | 12874 ft | 287 kts | 80° |
| 2026-05-04 16:47 | 40.82074 | 27.62739 | 12340 ft | 280 kts | 80° |
| 2026-05-04 16:48 | 40.82650 | 27.70308 | 11578 ft | 275 kts | 80° |
| 2026-05-04 16:48 | 40.82842 | 27.72820 | 11325 ft | 274 kts | 79° |
| 2026-05-04 16:49 | 40.83219 | 27.77802 | 10824 ft | 272 kts | 79° |
| 2026-05-04 16:49 | 40.83593 | 27.82758 | 10336 ft | 270 kts | 79° |
| 2026-05-04 16:50 | 40.83963 | 27.87692 | 9843 ft | 268 kts | 79° |
| 2026-05-04 16:50 | 40.84322 | 27.92526 | 9305 ft | 261 kts | 79° |
| 2026-05-04 16:51 | 40.84669 | 27.97230 | 8874 ft | 252 kts | 79° |
| 2026-05-04 16:51 | 40.84836 | 27.99493 | 8742 ft | 249 kts | 79° |
| 2026-05-04 16:51 | 40.85171 | 28.04026 | 8485 ft | 247 kts | 79° |
| 2026-05-04 16:52 | 40.85501 | 28.08523 | 8256 ft | 245 kts | 79° |
| 2026-05-04 16:52 | 40.85664 | 28.10758 | 8111 ft | 245 kts | 79° |
| 2026-05-04 16:53 | 40.85991 | 28.15246 | 7717 ft | 249 kts | 79° |
| 2026-05-04 16:53 | 40.86471 | 28.21940 | 7282 ft | 238 kts | 79° |
| 2026-05-04 16:54 | 40.86627 | 28.24110 | 7200 ft | 236 kts | 79° |
| 2026-05-04 16:55 | 40.87236 | 28.32657 | 6854 ft | 234 kts | 79° |
| 2026-05-04 16:55 | 40.87539 | 28.36929 | 6682 ft | 233 kts | 79° |
| 2026-05-04 16:56 | 40.87838 | 28.41192 | 6516 ft | 233 kts | 79° |
| 2026-05-04 16:56 | 40.88284 | 28.47571 | 6249 ft | 232 kts | 79° |
| 2026-05-04 16:57 | 40.88432 | 28.49696 | 6159 ft | 232 kts | 79° |
| 2026-05-04 16:57 | 40.88725 | 28.53939 | 5980 ft | 232 kts | 79° |
| 2026-05-04 16:58 | 40.89411 | 28.60181 | 5697 ft | 221 kts | 67° |
| 2026-05-04 16:58 | 40.89914 | 28.62054 | 5593 ft | 212 kts | 66° |
| 2026-05-04 16:59 | 40.90558 | 28.64448 | 5482 ft | 200 kts | 66° |
| 2026-05-04 17:00 | 40.93921 | 28.70671 | 5317 ft | 188 kts | 31° |
| 2026-05-04 17:00 | 40.97395 | 28.72956 | 5284 ft | 188 kts | 13° |
| 2026-05-04 17:01 | 40.99997 | 28.73243 | 5300 ft | 188 kts | 8° |
| 2026-05-04 17:01 | 41.02644 | 28.73236 | 4882 ft | 191 kts | 6° |
| 2026-05-04 17:02 | 41.05210 | 28.73182 | 4383 ft | 174 kts | 6° |
| 2026-05-04 17:02 | 41.07526 | 28.73136 | 3974 ft | 163 kts | 6° |
| 2026-05-04 17:03 | 41.08679 | 28.73117 | 3729 ft | 166 kts | 5° |
| 2026-05-04 17:03 | 41.09839 | 28.73096 | 3520 ft | 167 kts | 5° |
| 2026-05-04 17:03 | 41.12170 | 28.73050 | 3057 ft | 167 kts | 5° |
| 2026-05-04 17:04 | 41.14465 | 28.73003 | 2616 ft | 164 kts | 4° |
| 2026-05-04 17:04 | 41.16748 | 28.72959 | 2167 ft | 162 kts | 4° |
| 2026-05-04 17:05 | 41.18825 | 28.72915 | 1789 ft | 137 kts | 4° |
| 2026-05-04 17:05 | 41.20642 | 28.72882 | 1467 ft | 128 kts | 5° |
| 2026-05-04 17:06 | 41.22360 | 28.72851 | 1118 ft | 124 kts | 3° |
| 2026-05-04 17:06 | 41.23221 | 28.72836 | 967 ft | 124 kts | 2° |
| 2026-05-04 17:07 | 41.24992 | 28.72798 | 642 ft | 132 kts | 0° |
| 2026-05-04 17:07 | 41.25621 | 28.72787 | 483 ft | 136 kts | 0° |
| 2026-05-04 17:07 | 41.26855 | 28.72761 | 305 ft | 126 kts | 360° |
| 2026-05-04 17:07 | 41.27592 | 28.72750 | 285 ft | 83 kts | 359° |
| 2026-05-04 17:08 | 41.28012 | 28.72743 | 273 ft | 42 kts | 359° |
| 2026-05-04 17:08 | 41.28434 | 28.72863 | 263 ft | 17 kts | 30° |
| 2026-05-04 17:08 | 41.28456 | 28.72939 | 264 ft | 8 kts | 114° |
| 2026-05-04 17:09 | 41.28408 | 28.72961 | 266 ft | 7 kts | 179° |
| 2026-05-04 17:09 | 41.28351 | 28.72961 | 269 ft | 11 kts | 179° |
| 2026-05-04 17:09 | 41.28250 | 28.72963 | 273 ft | 18 kts | 179° |
| 2026-05-04 17:10 | 41.27932 | 28.72969 | 288 ft | 24 kts | 177° |
| 2026-05-04 17:10 | 41.27495 | 28.73092 | 298 ft | 20 kts | 179° |
| 2026-05-04 17:11 | 41.27397 | 28.73136 | 302 ft | 13 kts | 113° |
| 2026-05-04 17:11 | 41.27394 | 28.73256 | 302 ft | 13 kts | 88° |
| 2026-05-04 17:11 | 41.27406 | 28.73470 | 304 ft | 9 kts | 49° |
| 2026-05-04 17:12 | 41.27468 | 28.73484 | 302 ft | 9 kts | 359° |
| 2026-05-04 17:12 | 41.27491 | 28.73483 | 301 ft | 0 kts | 359° |